Shadwell, Virginia
Current Conditions -  °F | °C
As of 7:53 PM on Sunday 23 Nov 2014 (Local Time) from KCHO Reporting Station
Light Rain Light Rain  
Wind Chill: 48°   Ceiling: 800
Heat Index: 48°   Visibility: 2mi
Dew Point: 46°   Wind: 3mph
Humidity: 93%   Direction: 360°N
Pressure: 29.97"   Gusts: NA
Location:  38.0053°N, 78.3345°W
Report Text: KCHO 240053Z 36003KT 2SM -RA BR OVC008 09/08 A2997 RMK AO2 RAE15B32 SLP148 P0001 T00890078
Loading
Personal Weather Stations






























Interactive Weather Map New forecast layout! Learn more

10-Day Weather Forecast

Advertisements
Track Severe Weather on mobile